Time;durP1;ratioP1;P1;durP2;ratioP2;P2;SDS_P1;SDS_P2;PMS_P1;PMS_P2;Temp;Humidity;BMP_temperature;BMP_pressure;BME280_temperature;BME280_humidity;BME280_pressure;Samples;Min_cycle;Max_cycle;Signal;HPM_P1;HPM_P2
2022/01/03 00:02:01;;;;;;;0.40;0.30;;;;;;;10.99;92.20;100162.00;5074378;28;20441;-76
2022/01/03 00:04:27;;;;;;;0.40;0.20;;;;;;;11.02;92.13;100149.72;5074218;28;20440;-76
2022/01/03 00:06:54;;;;;;;0.40;0.30;;;;;;;11.02;92.10;100144.28;5074020;28;20905;-76
2022/01/03 00:09:21;;;;;;;0.40;0.30;;;;;;;10.97;92.25;100139.03;5074076;28;20495;-76
2022/01/03 00:11:48;;;;;;;0.40;0.30;;;;;;;11.00;92.17;100141.09;5073774;28;20448;-76
2022/01/03 00:14:14;;;;;;;0.40;0.30;;;;;;;11.00;92.22;100143.81;5073909;28;20473;-76
2022/01/03 00:16:42;;;;;;;0.40;0.20;;;;;;;10.99;92.48;100134.91;5075147;28;20506;-78
2022/01/03 00:19:08;;;;;;;0.40;0.30;;;;;;;10.95;93.20;100133.91;5073779;28;20512;-76
2022/01/03 00:21:44;;;;;;;0.40;0.30;;;;;;;10.97;93.32;100139.81;5073821;28;20437;-76
2022/01/03 00:24:12;;;;;;;0.40;0.30;;;;;;;11.01;93.20;100132.66;5073791;28;20869;-76
2022/01/03 00:26:41;;;;;;;0.40;0.30;;;;;;;10.99;93.33;100137.59;5073686;28;20892;-76
2022/01/03 00:29:10;;;;;;;0.40;0.30;;;;;;;10.89;94.48;100132.47;5073821;28;20456;-76
2022/01/03 00:31:38;;;;;;;0.40;0.30;;;;;;;10.78;96.25;100121.13;5073670;28;20436;-76
2022/01/03 00:34:08;;;;;;;0.40;0.30;;;;;;;10.66;97.16;100117.41;5073416;28;20476;-76
2022/01/03 00:36:36;;;;;;;0.40;0.30;;;;;;;10.58;98.25;100121.66;5073659;28;20433;-76
2022/01/03 00:39:05;;;;;;;0.40;0.30;;;;;;;10.50;99.50;100119.75;5073545;28;20441;-76
2022/01/03 00:41:31;;;;;;;0.40;0.30;;;;;;;10.45;99.81;100120.66;5073552;28;20851;-76
2022/01/03 00:43:58;;;;;;;0.40;0.27;;;;;;;10.43;100.00;100122.09;5073548;28;20465;-73
2022/01/03 00:46:27;;;;;;;0.40;0.30;;;;;;;10.32;100.00;100125.06;5073370;28;20484;-73
2022/01/03 00:48:54;;;;;;;0.40;0.30;;;;;;;10.23;100.00;100109.84;5073436;28;20467;-74
2022/01/03 00:51:22;;;;;;;0.40;0.30;;;;;;;10.10;100.00;100106.91;5073399;28;20445;-73
2022/01/03 00:53:51;;;;;;;0.40;0.30;;;;;;;10.07;100.00;100096.69;5073295;28;20457;-77
2022/01/03 00:56:25;;;;;;;0.40;0.30;;;;;;;9.98;100.00;100108.59;5073658;28;20934;-77
2022/01/03 00:58:55;;;;;;;0.40;0.30;;;;;;;9.92;100.00;100096.31;5073085;28;20929;-76
2022/01/03 01:01:24;;;;;;;0.40;0.30;;;;;;;9.81;100.00;100096.53;5073365;28;20452;-76
2022/01/03 01:03:54;;;;;;;0.40;0.20;;;;;;;9.76;100.00;100091.25;5072863;28;21096;-75
2022/01/03 01:06:23;;;;;;;0.40;0.20;;;;;;;9.73;100.00;100091.84;5073246;28;20836;-76
2022/01/03 01:08:56;;;;;;;0.40;0.30;;;;;;;9.66;100.00;100094.22;5073203;28;20859;-75
2022/01/03 01:11:27;;;;;;;0.40;0.30;;;;;;;9.63;100.00;100080.50;5073488;28;20475;-75
2022/01/03 01:13:55;;;;;;;0.50;0.50;;;;;;;9.61;100.00;100086.22;5073225;28;20481;-76
2022/01/03 01:16:21;;;;;;;0.40;0.30;;;;;;;9.58;100.00;100074.09;5073384;28;20437;-76
2022/01/03 01:18:49;;;;;;;0.40;0.30;;;;;;;9.61;100.00;100072.69;5072798;28;21057;-76
2022/01/03 01:21:16;;;;;;;0.40;0.30;;;;;;;9.60;100.00;100062.97;5073107;28;20441;-76
2022/01/03 01:23:44;;;;;;;0.40;0.30;;;;;;;9.60;100.00;100062.97;5076422;28;20465;-75
2022/01/03 01:28:55;;;;;;;0.40;0.30;;;;;;;9.58;100.00;100046.28;5077162;28;20400;-76
2022/01/03 01:31:24;;;;;;;0.40;0.30;;;;;;;9.58;100.00;100055.19;5077070;28;20448;-75
2022/01/03 01:33:53;;;;;;;0.40;0.30;;;;;;;9.58;100.00;100040.88;5076598;28;21009;-75
2022/01/03 01:36:23;;;;;;;0.40;0.20;;;;;;;9.60;100.00;100039.44;5077295;28;20437;-75
2022/01/03 01:38:52;;;;;;;0.40;0.30;;;;;;;9.61;100.00;100026.75;5077003;28;20438;-75
2022/01/03 01:41:20;;;;;;;0.40;0.30;;;;;;;9.65;100.00;100032.31;5077023;28;20445;-77
2022/01/03 01:43:48;;;;;;;0.40;0.30;;;;;;;9.67;100.00;100024.69;5078595;28;20464;-77
2022/01/03 01:46:16;;;;;;;0.40;0.30;;;;;;;9.67;100.00;100038.22;5077711;28;20485;-77
2022/01/03 01:48:46;;;;;;;0.40;0.30;;;;;;;9.68;100.00;100029.78;5077665;28;20452;-77
2022/01/03 01:51:14;;;;;;;0.40;0.30;;;;;;;9.64;100.00;100018.00;5077495;28;20493;-77
2022/01/03 01:53:43;;;;;;;0.40;0.30;;;;;;;9.60;100.00;100020.50;5076825;28;21031;-76
2022/01/03 01:56:21;;;;;;;0.40;0.30;;;;;;;9.65;100.00;100018.78;5077136;28;20444;-76
2022/01/03 01:59:10;;;;;;;0.40;0.30;;;;;;;9.63;100.00;100034.53;5076943;28;20437;-77
2022/01/03 02:01:44;;;;;;;0.40;0.30;;;;;;;9.60;100.00;100027.81;5077196;28;20461;-77
2022/01/03 02:04:18;;;;;;;0.40;0.30;;;;;;;9.59;100.00;100021.63;5076629;28;20515;-76
2022/01/03 02:06:46;;;;;;;0.40;0.30;;;;;;;9.62;100.00;100025.63;5076379;28;20456;-76
2022/01/03 02:09:19;;;;;;;0.40;0.20;;;;;;;9.62;100.00;100024.81;5076358;28;20452;-76
2022/01/03 02:11:53;;;;;;;0.40;0.30;;;;;;;9.57;100.00;100028.47;5076297;28;20433;-76
2022/01/03 02:14:21;;;;;;;0.40;0.30;;;;;;;9.56;100.00;100019.56;5076107;28;20457;-76
2022/01/03 02:16:48;;;;;;;0.40;0.30;;;;;;;9.59;100.00;100034.34;5076373;28;20444;-76
2022/01/03 02:19:14;;;;;;;0.40;0.30;;;;;;;9.53;100.00;100020.16;5076322;28;20433;-76
2022/01/03 02:21:42;;;;;;;0.40;0.30;;;;;;;9.50;100.00;100017.25;5076109;28;20445;-76
2022/01/03 02:24:09;;;;;;;0.40;0.30;;;;;;;9.50;100.00;100009.16;5075972;28;20468;-76
2022/01/03 02:26:36;;;;;;;0.40;0.30;;;;;;;9.49;100.00;100007.56;5075984;28;20481;-76
2022/01/03 02:29:04;;;;;;;0.40;0.30;;;;;;;9.49;100.00;100004.84;5075666;28;20942;-76
2022/01/03 02:31:31;;;;;;;0.40;0.30;;;;;;;9.49;100.00;99999.44;5075913;28;20460;-76
2022/01/03 02:34:00;;;;;;;0.40;0.30;;;;;;;9.51;100.00;100008.03;5075938;28;21028;-77
2022/01/03 02:36:28;;;;;;;0.40;0.27;;;;;;;9.47;100.00;99990.84;5077767;28;20437;-77
2022/01/03 02:38:56;;;;;;;0.40;0.30;;;;;;;9.44;100.00;99994.19;5075986;28;20473;-77
2022/01/03 02:41:23;;;;;;;0.40;0.30;;;;;;;9.46;100.00;99991.94;5077032;28;20488;-77
2022/01/03 02:43:50;;;;;;;0.40;0.30;;;;;;;9.44;100.00;99991.47;5075722;28;20852;-77
2022/01/03 02:46:16;;;;;;;0.40;0.30;;;;;;;9.44;100.00;99992.25;5075850;28;20825;-77
2022/01/03 02:48:43;;;;;;;0.40;0.30;;;;;;;9.45;100.00;99979.53;5075721;28;20464;-77
2022/01/03 02:51:09;;;;;;;0.40;0.30;;;;;;;9.45;100.00;99984.94;5075307;28;20962;-76
2022/01/03 02:53:35;;;;;;;0.40;0.20;;;;;;;9.45;100.00;99969.53;5075213;28;20852;-76
2022/01/03 02:56:03;;;;;;;0.40;0.30;;;;;;;9.48;100.00;99968.13;5075481;28;20441;-76
2022/01/03 02:58:30;;;;;;;0.40;0.30;;;;;;;9.49;100.00;99972.41;5074948;28;20841;-76
2022/01/03 03:00:57;;;;;;;0.40;0.30;;;;;;;9.46;100.00;99964.91;5075060;28;20492;-76
2022/01/03 03:03:24;;;;;;;0.40;0.30;;;;;;;9.46;100.00;99959.50;5075667;28;21023;-76
2022/01/03 03:05:51;;;;;;;0.40;0.30;;;;;;;9.51;100.00;99953.97;5075752;28;20449;-76
2022/01/03 03:08:18;;;;;;;0.40;0.30;;;;;;;9.51;100.00;99956.69;5075549;28;20994;-76
2022/01/03 03:10:45;;;;;;;0.40;0.30;;;;;;;9.52;100.00;99950.19;5075722;28;20437;-76
2022/01/03 03:13:14;;;;;;;0.40;0.23;;;;;;;9.49;100.00;99931.88;5075505;28;20465;-76
2022/01/03 03:15:40;;;;;;;0.40;0.30;;;;;;;9.48;100.00;99936.47;5075597;28;20445;-76
2022/01/03 03:18:07;;;;;;;0.40;0.30;;;;;;;9.52;100.00;99933.97;5075442;28;20448;-76
2022/01/03 03:20:34;;;;;;;0.40;0.30;;;;;;;9.52;100.00;99932.06;5075288;28;20445;-75
2022/01/03 03:23:01;;;;;;;0.40;0.30;;;;;;;9.52;100.00;99931.25;5075138;28;20453;-76
2022/01/03 03:25:30;;;;;;;0.40;0.30;;;;;;;9.49;100.00;99932.66;5075113;28;20437;-76
2022/01/03 03:28:00;;;;;;;0.40;0.30;;;;;;;9.48;100.00;99924.88;5075050;28;20555;-76
2022/01/03 03:30:30;;;;;;;0.40;0.30;;;;;;;9.42;100.00;99918.78;5074716;28;20445;-76
2022/01/03 03:33:01;;;;;;;0.40;0.30;;;;;;;9.36;100.00;99914.63;5074770;28;20843;-76
2022/01/03 03:35:27;;;;;;;0.40;0.30;;;;;;;9.32;100.00;99919.03;5074790;28;20444;-76
2022/01/03 03:37:54;;;;;;;0.40;0.30;;;;;;;9.31;100.00;99922.88;5074396;28;20934;-76
2022/01/03 03:40:20;;;;;;;0.40;0.30;;;;;;;9.28;100.00;99913.44;5074645;28;20449;-76
2022/01/03 03:42:47;;;;;;;0.40;0.30;;;;;;;9.26;100.00;99915.69;5074569;28;20472;-76
2022/01/03 03:45:13;;;;;;;0.40;0.30;;;;;;;9.22;100.00;99913.91;5074074;28;20473;-75
2022/01/03 03:47:42;;;;;;;0.40;0.30;;;;;;;9.23;100.00;99916.28;5074527;28;20895;-76
2022/01/03 03:50:09;;;;;;;0.40;0.30;;;;;;;9.15;100.00;99906.22;5074705;28;20434;-76
2022/01/03 03:52:36;;;;;;;0.40;0.30;;;;;;;9.17;100.00;99905.94;5074466;28;20461;-77
2022/01/03 03:55:03;;;;;;;0.40;0.30;;;;;;;9.16;100.00;99915.91;5074546;28;20448;-75
2022/01/03 03:57:29;;;;;;;0.40;0.30;;;;;;;9.15;100.00;99917.03;5074363;28;20858;-76
2022/01/03 03:59:55;;;;;;;0.40;0.30;;;;;;;9.15;100.00;99908.91;5074386;28;20437;-75
2022/01/03 04:02:22;;;;;;;0.40;0.30;;;;;;;9.15;100.00;99913.53;5074154;28;20544;-75
2022/01/03 04:04:50;;;;;;;0.40;0.30;;;;;;;9.15;100.00;99913.53;5074265;28;20483;-75
2022/01/03 04:07:17;;;;;;;0.40;0.20;;;;;;;9.10;100.00;99923.34;5074101;28;20481;-76
2022/01/03 04:09:43;;;;;;;0.40;0.30;;;;;;;9.10;100.00;99926.06;5074625;28;20459;-76
2022/01/03 04:12:10;;;;;;;0.40;0.30;;;;;;;9.10;100.00;99966.56;5073850;28;20846;-74
2022/01/03 04:14:37;;;;;;;0.40;0.30;;;;;;;9.09;100.00;99923.66;5074010;28;20441;-71
2022/01/03 04:17:03;;;;;;;0.40;0.30;;;;;;;9.06;100.00;99943.19;5074006;28;20858;-73
2022/01/03 04:19:30;;;;;;;0.40;0.30;;;;;;;9.01;100.00;99946.81;5073938;28;20444;-74
2022/01/03 04:21:57;;;;;;;0.40;0.30;;;;;;;9.01;100.00;99957.63;5073795;28;20446;-74
2022/01/03 04:24:24;;;;;;;0.40;0.30;;;;;;;8.98;100.00;99952.00;5075593;28;20437;-73
2022/01/03 04:26:50;;;;;;;0.40;0.30;;;;;;;8.98;100.00;99962.81;5073895;28;20444;-73
2022/01/03 04:29:17;;;;;;;0.40;0.30;;;;;;;8.94;100.00;99948.31;5073983;28;20855;-73
2022/01/03 04:31:43;;;;;;;0.40;0.20;;;;;;;8.93;100.00;99958.34;5073961;28;20865;-73
2022/01/03 04:34:10;;;;;;;0.40;0.30;;;;;;;8.88;100.00;99971.97;5073629;28;20473;-73
2022/01/03 04:36:37;;;;;;;0.40;0.30;;;;;;;8.89;100.00;99983.56;5073735;28;20441;-75
2022/01/03 04:39:06;;;;;;;0.40;0.30;;;;;;;8.84;100.00;99982.56;5073558;28;20468;-75
2022/01/03 04:41:32;;;;;;;0.40;0.23;;;;;;;8.83;100.00;99983.69;5073530;28;20437;-75
2022/01/03 04:44:00;;;;;;;0.40;0.30;;;;;;;8.82;100.00;99976.69;5073575;28;20461;-74
2022/01/03 04:46:27;;;;;;;0.40;0.30;;;;;;;8.82;100.00;99982.09;5073431;28;20486;-75
2022/01/03 04:48:53;;;;;;;0.40;0.30;;;;;;;8.81;100.00;100002.09;5073413;28;20485;-75
2022/01/03 04:51:20;;;;;;;0.40;0.30;;;;;;;8.80;100.00;100005.88;5073532;28;20446;-74
2022/01/03 04:53:46;;;;;;;0.40;0.30;;;;;;;8.78;100.00;100018.91;5073451;28;20453;-74
2022/01/03 04:56:15;;;;;;;0.40;0.30;;;;;;;8.84;100.00;100012.28;5073051;28;20981;-75
2022/01/03 04:58:43;;;;;;;0.40;0.30;;;;;;;8.89;100.00;100029.47;5072863;28;20437;-74
2022/01/03 05:01:10;;;;;;;0.40;0.30;;;;;;;8.92;100.00;100032.38;5073471;28;20453;-75
2022/01/03 05:03:37;;;;;;;0.40;0.20;;;;;;;8.87;100.00;100034.38;5073227;28;20474;-74
2022/01/03 05:06:04;;;;;;;0.40;0.27;;;;;;;8.91;100.00;100030.78;5073259;28;20441;-73
2022/01/03 05:08:31;;;;;;;0.40;0.30;;;;;;;8.92;100.00;100045.06;5073395;28;20524;-74
2022/01/03 05:11:00;;;;;;;0.40;0.30;;;;;;;8.90;99.61;100044.56;5073242;28;20453;-75
2022/01/03 05:13:28;;;;;;;0.40;0.30;;;;;;;8.88;98.77;100044.09;5073331;28;20842;-75
2022/01/03 05:15:55;;;;;;;0.40;0.30;;;;;;;8.84;100.00;100071.69;5073177;28;20446;-75
2022/01/03 05:18:22;;;;;;;0.40;0.30;;;;;;;8.83;100.00;100072.78;5073207;28;20445;-73
2022/01/03 05:20:48;;;;;;;0.40;0.30;;;;;;;8.75;100.00;100068.09;5073120;28;20459;-73
2022/01/03 05:23:15;;;;;;;0.40;0.30;;;;;;;8.76;100.00;100074.28;5072981;28;20465;-74
2022/01/03 05:25:41;;;;;;;0.40;0.30;;;;;;;8.75;100.00;100083.50;5073025;28;20437;-73
2022/01/03 05:28:07;;;;;;;0.40;0.30;;;;;;;8.72;100.00;100086.78;5072966;28;20869;-73
2022/01/03 05:30:35;;;;;;;0.40;0.30;;;;;;;8.66;100.00;100079.91;5072973;28;20438;-74
2022/01/03 05:33:02;;;;;;;0.40;0.30;;;;;;;8.66;100.00;100091.50;5072517;28;20538;-74
2022/01/03 05:35:28;;;;;;;0.40;0.30;;;;;;;8.65;100.00;100089.91;5072924;28;20449;-74
2022/01/03 05:37:55;;;;;;;0.40;0.30;;;;;;;8.57;100.00;100104.88;5072614;28;20816;-74
2022/01/03 05:40:23;;;;;;;0.40;0.30;;;;;;;8.51;100.00;100113.41;5072954;28;20491;-74
2022/01/03 05:42:50;;;;;;;0.40;0.30;;;;;;;8.44;100.00;100108.38;5072831;28;20461;-74
2022/01/03 05:45:16;;;;;;;0.87;0.87;;;;;;;8.37;100.00;100110.69;5072900;28;20437;-72
2022/01/03 05:47:46;;;;;;;0.40;0.20;;;;;;;8.31;100.00;100109.94;5072634;28;20488;-73
2022/01/03 05:50:14;;;;;;;0.40;0.30;;;;;;;8.22;100.00;100109.00;5072814;28;20482;-73
2022/01/03 05:52:40;;;;;;;0.40;0.30;;;;;;;8.22;100.00;100129.81;5072748;28;20527;-72
2022/01/03 05:55:08;;;;;;;0.40;0.30;;;;;;;8.23;100.00;100115.22;5072779;28;20437;-72
2022/01/03 05:57:34;;;;;;;0.40;0.30;;;;;;;8.25;100.00;100124.63;5072733;28;20441;-72
2022/01/03 06:00:03;;;;;;;0.40;0.20;;;;;;;8.29;100.00;100130.22;5072380;28;20448;-72
2022/01/03 06:02:34;;;;;;;0.40;0.30;;;;;;;8.30;100.00;100139.91;5072684;28;20461;-72
2022/01/03 06:05:04;;;;;;;0.40;0.20;;;;;;;8.27;100.00;100140.50;5072732;28;20429;-72
2022/01/03 06:07:31;;;;;;;0.40;0.30;;;;;;;8.24;100.00;100136.50;5073018;28;20540;-73
2022/01/03 06:09:57;;;;;;;0.40;0.30;;;;;;;8.21;100.00;100139.00;5076028;28;20452;-72
2022/01/03 06:12:24;;;;;;;0.40;0.30;;;;;;;8.27;100.00;100132.41;5076317;28;20518;-72
2022/01/03 06:14:51;;;;;;;0.40;0.30;;;;;;;8.29;100.00;100144.53;5076331;28;20867;-73
2022/01/03 06:17:19;;;;;;;0.40;0.30;;;;;;;8.25;100.00;100154.31;5076302;28;20485;-72
2022/01/03 06:19:46;;;;;;;0.40;0.30;;;;;;;8.27;100.00;100162.09;5076184;28;20445;-72
2022/01/03 06:22:14;;;;;;;0.40;0.30;;;;;;;8.31;100.00;100161.19;5076079;28;20460;-72
2022/01/03 06:24:40;;;;;;;0.40;0.30;;;;;;;8.33;100.00;100164.41;5075981;28;20495;-72
2022/01/03 06:27:07;;;;;;;0.40;0.30;;;;;;;8.37;100.00;100172.75;5076050;28;20433;-75
2022/01/03 06:29:34;;;;;;;0.40;0.30;;;;;;;8.41;100.00;100157.56;5075610;28;21005;-73
2022/01/03 06:32:01;;;;;;;0.40;0.30;;;;;;;8.44;100.00;100159.66;5075386;28;20955;-73
2022/01/03 06:34:27;;;;;;;0.40;0.30;;;;;;;8.47;100.00;100175.28;5075662;28;20906;-73
2022/01/03 06:36:54;;;;;;;0.40;0.30;;;;;;;8.52;100.00;100177.06;5075950;28;20491;-73
2022/01/03 06:39:22;;;;;;;0.40;0.20;;;;;;;8.53;100.00;100174.06;5075866;28;20437;-73
2022/01/03 06:41:48;;;;;;;0.40;0.30;;;;;;;8.58;100.00;100178.56;5075782;28;20445;-73
2022/01/03 06:44:14;;;;;;;0.40;0.30;;;;;;;8.64;100.00;100177.41;5075922;28;20461;-73
2022/01/03 06:46:41;;;;;;;1.60;1.50;;;;;;;8.68;100.00;100183.81;5075739;28;20441;-73
2022/01/03 06:49:07;;;;;;;0.40;0.30;;;;;;;8.72;100.00;100198.31;5075605;28;20485;-73
2022/01/03 06:51:35;;;;;;;0.40;0.30;;;;;;;8.75;100.00;100192.31;5075644;28;20438;-73
2022/01/03 06:54:03;;;;;;;0.40;0.30;;;;;;;8.81;100.00;100201.13;5075585;28;20550;-73
2022/01/03 06:56:31;;;;;;;0.40;0.30;;;;;;;8.88;100.00;100198.03;5075485;28;20446;-73
2022/01/03 06:58:57;;;;;;;0.40;0.30;;;;;;;8.90;100.00;100210.16;5075482;28;20433;-73
2022/01/03 07:01:24;;;;;;;0.40;0.30;;;;;;;8.93;100.00;100212.22;5075458;28;20821;-74
2022/01/03 07:03:50;;;;;;;0.40;0.30;;;;;;;9.01;100.00;100210.75;5075340;28;20507;-73
2022/01/03 07:06:17;;;;;;;0.40;0.20;;;;;;;8.98;100.00;100217.53;5075346;28;20486;-72
2022/01/03 07:08:43;;;;;;;0.40;0.20;;;;;;;9.03;100.00;100219.31;5075208;28;20476;-73
2022/01/03 07:11:10;;;;;;;0.40;0.30;;;;;;;9.03;100.00;100230.97;5075306;28;20449;-73
2022/01/03 07:13:44;;;;;;;0.40;0.30;;;;;;;9.06;100.00;100226.84;5075141;28;20538;-74
2022/01/03 07:18:57;;;;;;;0.40;0.30;;;;;;;9.12;100.00;100225.66;5053785;28;20444;-73
2022/01/03 07:21:23;;;;;;;0.40;0.30;;;;;;;9.09;100.00;100228.97;5073951;28;20935;-74
2022/01/03 07:23:50;;;;;;;0.40;0.30;;;;;;;9.05;100.00;100234.16;5074952;28;20453;-74
2022/01/03 07:26:16;;;;;;;0.40;0.30;;;;;;;9.04;100.00;100242.56;5075005;28;20437;-74
2022/01/03 07:28:44;;;;;;;0.40;0.20;;;;;;;9.06;100.00;100234.94;5074911;28;20488;-74
2022/01/03 07:31:11;;;;;;;0.40;0.30;;;;;;;9.12;100.00;100249.16;5074922;28;20445;-74
2022/01/03 07:33:37;;;;;;;0.40;0.30;;;;;;;9.12;100.00;100244.56;5074650;28;20477;-74
2022/01/03 07:36:04;;;;;;;0.40;0.30;;;;;;;9.09;100.00;100245.97;5074535;28;20440;-74
2022/01/03 07:38:31;;;;;;;0.40;0.30;;;;;;;9.05;100.00;100239.56;5074734;28;20816;-74
2022/01/03 07:40:59;;;;;;;0.40;0.27;;;;;;;9.04;100.00;100254.16;5074255;28;20461;-74
2022/01/03 07:43:25;;;;;;;0.40;0.30;;;;;;;9.07;100.00;100253.56;5074575;28;20465;-75
2022/01/03 07:45:53;;;;;;;0.40;0.30;;;;;;;9.09;100.00;100245.97;5074304;28;20822;-75
2022/01/03 07:48:19;;;;;;;0.40;0.30;;;;;;;9.11;100.00;100259.16;5074142;28;20481;-75
2022/01/03 07:50:46;;;;;;;0.40;0.30;;;;;;;9.09;100.00;100255.97;5074491;28;20442;-75
2022/01/03 07:53:12;;;;;;;0.40;0.30;;;;;;;9.13;100.00;100256.97;5074353;28;20476;-75
2022/01/03 07:55:39;;;;;;;0.40;0.30;;;;;;;9.15;100.00;100265.56;5074424;28;20488;-76
2022/01/03 07:58:05;;;;;;;0.40;0.30;;;;;;;9.15;100.00;100262.06;5074334;28;20457;-76
2022/01/03 08:00:31;;;;;;;0.40;0.30;;;;;;;9.15;100.00;100262.88;5074318;28;20469;-76
2022/01/03 08:02:59;;;;;;;0.40;0.30;;;;;;;9.18;100.00;100267.69;5074192;28;20466;-76
2022/01/03 08:05:26;;;;;;;0.40;0.30;;;;;;;9.15;100.00;100270.97;5074434;28;20536;-75
2022/01/03 08:07:52;;;;;;;0.40;0.30;;;;;;;9.15;100.00;100265.56;5074130;28;20452;-76
2022/01/03 08:10:20;;;;;;;0.40;0.30;;;;;;;9.14;100.00;100272.09;5074118;28;20444;-76
2022/01/03 08:12:47;;;;;;;0.40;0.27;;;;;;;9.16;100.00;100269.88;5074035;28;20461;-76
2022/01/03 08:15:13;;;;;;;0.40;0.30;;;;;;;9.15;100.00;100276.38;5074039;28;20452;-75
2022/01/03 08:17:40;;;;;;;0.40;0.30;;;;;;;9.16;100.00;100272.56;5073654;28;20445;-76
2022/01/03 08:20:09;;;;;;;0.40;0.30;;;;;;;9.14;100.00;100274.00;5073665;28;20822;-75
2022/01/03 08:22:35;;;;;;;0.40;0.30;;;;;;;9.17;100.00;100273.41;5073869;28;20465;-76
2022/01/03 08:25:02;;;;;;;0.40;0.30;;;;;;;9.17;100.00;100274.19;5073813;28;20448;-75
2022/01/03 08:27:28;;;;;;;0.40;0.30;;;;;;;9.17;100.00;100282.31;5073781;28;20437;-75
2022/01/03 08:29:56;;;;;;;0.40;0.30;;;;;;;9.18;100.00;100278.50;5073688;28;20485;-75
2022/01/03 08:32:22;;;;;;;0.40;0.30;;;;;;;9.21;100.00;100280.63;5073459;28;20485;-76
2022/01/03 08:34:50;;;;;;;0.40;0.30;;;;;;;9.23;100.00;100289.22;5073853;28;20422;-75
2022/01/03 08:37:18;;;;;;;0.40;0.30;;;;;;;9.26;100.00;100291.31;5073852;28;20449;-77
2022/01/03 08:39:44;;;;;;;0.40;0.30;;;;;;;9.29;100.00;100281.78;5073769;28;20448;-74
2022/01/03 08:42:11;;;;;;;0.40;0.30;;;;;;;9.30;100.00;100294.22;5073443;28;20449;-73
2022/01/03 08:44:37;;;;;;;0.40;0.30;;;;;;;9.31;100.00;100290.41;5073535;28;20449;-73
2022/01/03 08:47:04;;;;;;;0.40;0.30;;;;;;;9.33;100.00;100291.72;5073491;28;20433;-71
2022/01/03 08:49:30;;;;;;;0.40;0.30;;;;;;;9.43;100.00;100287.19;5073396;28;20481;-72
2022/01/03 08:51:57;;;;;;;0.40;0.30;;;;;;;9.42;100.00;100283.69;5073369;28;20441;-72
2022/01/03 08:54:25;;;;;;;0.40;0.30;;;;;;;9.53;100.00;100281.59;5073410;28;20449;-72
2022/01/03 08:56:52;;;;;;;0.40;0.30;;;;;;;9.54;100.00;100277.78;5073338;28;21052;-72
2022/01/03 08:59:18;;;;;;;0.40;0.30;;;;;;;9.66;100.00;100280.00;5073321;28;20442;-73
2022/01/03 09:01:44;;;;;;;0.40;0.30;;;;;;;9.68;100.00;100273.16;5073379;28;20838;-73
2022/01/03 09:04:11;;;;;;;0.40;0.30;;;;;;;9.78;100.00;100282.97;5073207;28;20462;-73
2022/01/03 09:06:37;;;;;;;0.40;0.30;;;;;;;9.80;100.00;100283.47;5073193;28;20852;-72
2022/01/03 09:09:05;;;;;;;0.40;0.30;;;;;;;9.91;100.00;100287.56;5073067;28;20481;-72
2022/01/03 09:11:33;;;;;;;0.40;0.27;;;;;;;9.96;99.48;100300.16;5073203;28;20525;-72
2022/01/03 09:13:59;;;;;;;0.40;0.30;;;;;;;9.98;99.47;100300.69;5072688;28;20481;-72
2022/01/03 09:16:26;;;;;;;0.40;0.20;;;;;;;9.97;99.45;100290.97;5073098;28;20445;-72
2022/01/03 09:18:52;;;;;;;0.40;0.30;;;;;;;9.96;98.59;100292.06;5073016;28;20444;-72
2022/01/03 09:21:19;;;;;;;0.40;0.30;;;;;;;10.00;98.41;100290.34;5073094;28;20449;-72
2022/01/03 09:23:50;;;;;;;0.40;0.30;;;;;;;9.96;97.12;100300.16;5073076;28;20828;-72
2022/01/03 09:29:02;;;;;;;0.73;0.73;;;;;;;10.09;98.71;100292.06;5072799;28;20464;-72
2022/01/03 09:31:31;;;;;;;0.40;0.30;;;;;;;10.15;97.56;100303.56;5073022;28;20445;-72
2022/01/03 09:33:59;;;;;;;0.40;0.30;;;;;;;10.15;98.02;100308.97;5072553;28;20473;-72
2022/01/03 09:36:27;;;;;;;0.40;0.30;;;;;;;10.17;95.43;100305.94;5072677;28;20442;-71
2022/01/03 09:38:54;;;;;;;0.40;0.27;;;;;;;10.28;94.70;100301.94;5072915;28;20448;-71
2022/01/03 09:41:23;;;;;;;0.40;0.20;;;;;;;10.30;95.02;100297.81;5072999;28;20445;-71
2022/01/03 09:43:52;;;;;;;0.40;0.30;;;;;;;10.35;94.37;100303.09;5074586;28;20818;-72
2022/01/03 09:46:23;;;;;;;0.40;0.30;;;;;;;10.39;94.93;100297.88;5076913;28;20455;-71
2022/01/03 09:48:52;;;;;;;0.40;0.30;;;;;;;10.38;94.05;100304.41;5076763;28;20487;-72
2022/01/03 09:51:21;;;;;;;0.40;0.20;;;;;;;10.34;94.26;100296.09;5076505;28;21064;-72
2022/01/03 09:53:49;;;;;;;0.40;0.30;;;;;;;10.31;94.32;100294.03;5076670;28;20492;-72
2022/01/03 09:56:17;;;;;;;0.40;0.30;;;;;;;10.33;94.70;100299.91;5076716;28;20487;-72
2022/01/03 09:58:43;;;;;;;0.40;0.30;;;;;;;10.29;94.13;100303.53;5076688;28;20484;-71
2022/01/03 10:01:11;;;;;;;0.40;0.30;;;;;;;10.23;94.06;100291.22;5076853;28;20452;-71
2022/01/03 10:03:41;;;;;;;0.40;0.30;;;;;;;10.22;94.80;100293.09;5076497;28;20464;-72
2022/01/03 10:06:07;;;;;;;0.40;0.27;;;;;;;10.16;94.10;100288.91;5076180;28;20506;-72
2022/01/03 10:08:34;;;;;;;0.40;0.30;;;;;;;10.16;94.17;100286.19;5076369;28;20441;-72
2022/01/03 10:11:00;;;;;;;0.40;0.30;;;;;;;10.15;95.05;100294.63;5076366;28;20445;-72
2022/01/03 10:13:27;;;;;;;0.40;0.30;;;;;;;10.19;95.09;100299.13;5075985;28;20457;-72
2022/01/03 10:15:53;;;;;;;0.40;0.23;;;;;;;10.25;95.01;100295.22;5076323;28;20440;-72
2022/01/03 10:18:21;;;;;;;0.40;0.30;;;;;;;10.31;94.47;100296.72;5076293;28;20859;-72
2022/01/03 10:20:48;;;;;;;0.40;0.30;;;;;;;10.36;94.32;100293.09;5076246;28;20860;-72
2022/01/03 10:23:17;;;;;;;0.40;0.20;;;;;;;10.41;94.29;100289.47;5076117;28;20468;-73
2022/01/03 10:25:46;;;;;;;0.40;0.30;;;;;;;10.41;94.15;100289.47;5076375;28;20440;-73
2022/01/03 10:28:22;;;;;;;0.40;0.30;;;;;;;10.45;94.49;100285.84;5076083;28;20449;-72
2022/01/03 10:30:49;;;;;;;0.40;0.30;;;;;;;10.52;94.26;100293.53;5075981;28;20914;-72
2022/01/03 10:33:18;;;;;;;0.40;0.20;;;;;;;10.60;93.57;100290.06;5075145;28;20469;-72
2022/01/03 10:35:46;;;;;;;0.40;0.20;;;;;;;10.73;93.31;100288.41;5075024;28;20915;-72
2022/01/03 10:38:32;;;;;;;0.40;0.30;;;;;;;10.86;93.03;100291.03;5074981;28;20795;-72
2022/01/03 10:41:09;;;;;;;0.40;0.30;;;;;;;10.93;91.30;100287.09;5074952;28;20432;-72
2022/01/03 10:43:36;;;;;;;0.40;0.30;;;;;;;10.90;92.06;100282.31;5075178;28;20483;-71
2022/01/03 10:46:16;;;;;;;0.40;0.20;;;;;;;10.91;91.42;100275.78;5075131;28;20452;-72
2022/01/03 10:48:43;;;;;;;0.40;0.40;;;;;;;10.93;90.60;100284.38;5075086;28;20429;-72
2022/01/03 10:51:09;;;;;;;0.40;0.30;;;;;;;11.00;90.19;100284.75;5075046;28;20449;-70
2022/01/03 10:53:39;;;;;;;0.40;0.30;;;;;;;10.93;90.37;100281.66;5075023;28;20462;-71
2022/01/03 10:56:28;;;;;;;0.40;0.30;;;;;;;10.92;88.81;100277.38;5073874;28;20433;-72
2022/01/03 10:58:55;;;;;;;0.40;0.30;;;;;;;10.95;89.12;100274.84;5074913;28;20524;-71
2022/01/03 11:01:23;;;;;;;0.40;0.30;;;;;;;11.00;88.74;100282.81;5074565;28;20939;-71
2022/01/03 11:03:50;;;;;;;0.40;0.30;;;;;;;10.98;89.34;100285.06;5074397;28;20836;-71
2022/01/03 11:06:24;;;;;;;0.40;0.30;;;;;;;10.93;89.59;100281.66;5074513;28;20457;-71
2022/01/03 11:11:40;;;;;;;0.40;0.30;;;;;;;10.68;92.85;100289.34;5074632;28;20421;-71
2022/01/03 11:14:07;;;;;;;0.40;0.30;;;;;;;10.60;94.06;100271.13;5074407;28;20469;-71
2022/01/03 11:16:34;;;;;;;0.40;0.20;;;;;;;10.51;93.94;100273.78;5074672;28;20448;-71
2022/01/03 11:19:02;;;;;;;0.40;0.20;;;;;;;10.41;95.28;100273.22;5074529;28;20442;-71
2022/01/03 11:21:31;;;;;;;0.40;0.30;;;;;;;10.42;95.47;100264.00;5074511;28;20452;-71
2022/01/03 11:24:11;;;;;;;0.40;0.30;;;;;;;10.36;94.45;100266.03;5074407;28;20876;-71
2022/01/03 11:26:43;;;;;;;0.40;0.30;;;;;;;10.42;93.60;100262.06;5074282;28;20788;-72
2022/01/03 11:29:10;;;;;;;0.40;0.30;;;;;;;10.40;92.23;100249.94;5074412;28;20429;-72
2022/01/03 11:31:39;;;;;;;0.40;0.20;;;;;;;10.43;92.57;100243.91;5074313;28;20452;-72
2022/01/03 11:34:07;;;;;;;0.40;0.30;;;;;;;10.55;91.31;100236.84;5073716;28;20489;-72
2022/01/03 11:36:34;;;;;;;0.40;0.30;;;;;;;10.72;91.45;100236.16;5074295;28;20485;-72
2022/01/03 11:39:05;;;;;;;0.40;0.30;;;;;;;10.84;91.10;100235.56;5074096;28;20445;-72
2022/01/03 11:41:33;;;;;;;0.40;0.30;;;;;;;10.91;88.84;100240.53;5074229;28;20441;-72